Toledo, Arkansas
Current Conditions -  °F | °C
As of 10:53 PM on Thursday 30 Oct 2014 (Local Time) from KPBF Reporting Station
Broken Clouds Broken Clouds  
Wind Chill: 57°   Ceiling: 9500
Heat Index: 57°   Visibility: 10mi
Dew Point: 49°   Wind: 6mph
Humidity: 74%   Direction: 240°WSW
Pressure: 30.05"   Gusts: NA
Location:  33.947°N, 92.1633°W
Report Text: KPBF 310353Z AUTO 24005KT 10SM FEW070 SCT080 BKN095 14/09 A3005 RMK AO2 SLP173 T01390094
Loading
Personal Weather Stations






























Interactive Weather Map
Tropical Storm Tracking
New forecast layout! Learn more

10-Day Weather Forecast

Advertisements
Track Severe Weather on mobile